sensor_id;sensor_type;location;lat;lon;timestamp;P1;durP1;ratioP1;P2;durP2;ratioP2
16472;SDS011;8347;52.486;13.432;2024-01-07T00:01:45;5.22;;;2.50;;
16472;SDS011;8347;52.486;13.432;2024-01-07T00:04:32;5.20;;;2.60;;
16472;SDS011;8347;52.486;13.432;2024-01-07T00:07:24;8.07;;;2.90;;
16472;SDS011;8347;52.486;13.432;2024-01-07T00:10:11;7.38;;;2.83;;
16472;SDS011;8347;52.486;13.432;2024-01-07T00:12:57;4.82;;;2.90;;
16472;SDS011;8347;52.486;13.432;2024-01-07T00:15:45;7.45;;;2.72;;
16472;SDS011;8347;52.486;13.432;2024-01-07T00:18:31;4.07;;;2.88;;
16472;SDS011;8347;52.486;13.432;2024-01-07T00:21:18;5.43;;;2.50;;
16472;SDS011;8347;52.486;13.432;2024-01-07T00:24:05;5.30;;;2.63;;
16472;SDS011;8347;52.486;13.432;2024-01-07T00:26:51;8.43;;;3.20;;
16472;SDS011;8347;52.486;13.432;2024-01-07T00:29:38;4.57;;;2.70;;
16472;SDS011;8347;52.486;13.432;2024-01-07T00:32:25;8.48;;;3.28;;
16472;SDS011;8347;52.486;13.432;2024-01-07T00:35:12;7.30;;;3.77;;
16472;SDS011;8347;52.486;13.432;2024-01-07T00:37:58;7.60;;;3.45;;
16472;SDS011;8347;52.486;13.432;2024-01-07T00:40:45;4.93;;;2.90;;
16472;SDS011;8347;52.486;13.432;2024-01-07T00:43:31;5.78;;;3.70;;
16472;SDS011;8347;52.486;13.432;2024-01-07T00:46:18;6.97;;;3.10;;
16472;SDS011;8347;52.486;13.432;2024-01-07T00:49:05;9.85;;;3.20;;
16472;SDS011;8347;52.486;13.432;2024-01-07T00:51:51;3.88;;;2.42;;
16472;SDS011;8347;52.486;13.432;2024-01-07T00:54:38;5.03;;;2.85;;
16472;SDS011;8347;52.486;13.432;2024-01-07T00:57:25;6.25;;;2.50;;
16472;SDS011;8347;52.486;13.432;2024-01-07T01:00:11;3.30;;;2.23;;
16472;SDS011;8347;52.486;13.432;2024-01-07T01:02:58;2.72;;;2.30;;
16472;SDS011;8347;52.486;13.432;2024-01-07T01:05:45;4.40;;;2.20;;
16472;SDS011;8347;52.486;13.432;2024-01-07T01:08:32;9.05;;;2.50;;
16472;SDS011;8347;52.486;13.432;2024-01-07T01:11:18;7.75;;;2.70;;
16472;SDS011;8347;52.486;13.432;2024-01-07T01:14:05;3.00;;;2.13;;
16472;SDS011;8347;52.486;13.432;2024-01-07T01:16:51;3.92;;;2.25;;
16472;SDS011;8347;52.486;13.432;2024-01-07T01:19:38;3.73;;;2.00;;
16472;SDS011;8347;52.486;13.432;2024-01-07T01:22:25;7.20;;;1.93;;
16472;SDS011;8347;52.486;13.432;2024-01-07T01:25:11;2.00;;;1.80;;
16472;SDS011;8347;52.486;13.432;2024-01-07T01:27:58;1.92;;;1.35;;
16472;SDS011;8347;52.486;13.432;2024-01-07T01:30:44;2.72;;;2.08;;
16472;SDS011;8347;52.486;13.432;2024-01-07T01:33:31;3.83;;;1.80;;
16472;SDS011;8347;52.486;13.432;2024-01-07T01:36:17;4.33;;;2.37;;
16472;SDS011;8347;52.486;13.432;2024-01-07T01:39:05;6.22;;;2.20;;
16472;SDS011;8347;52.486;13.432;2024-01-07T01:41:51;2.70;;;1.70;;
16472;SDS011;8347;52.486;13.432;2024-01-07T01:44:39;3.33;;;2.10;;
16472;SDS011;8347;52.486;13.432;2024-01-07T01:47:25;2.85;;;2.13;;
16472;SDS011;8347;52.486;13.432;2024-01-07T01:50:11;1.83;;;1.73;;
16472;SDS011;8347;52.486;13.432;2024-01-07T01:52:58;6.87;;;1.90;;
16472;SDS011;8347;52.486;13.432;2024-01-07T01:55:44;5.37;;;2.63;;
16472;SDS011;8347;52.486;13.432;2024-01-07T01:58:32;3.20;;;2.10;;
16472;SDS011;8347;52.486;13.432;2024-01-07T02:01:19;4.85;;;2.22;;
16472;SDS011;8347;52.486;13.432;2024-01-07T02:04:05;5.27;;;3.07;;
16472;SDS011;8347;52.486;13.432;2024-01-07T02:06:52;3.67;;;2.13;;
16472;SDS011;8347;52.486;13.432;2024-01-07T02:09:39;9.07;;;3.07;;
16472;SDS011;8347;52.486;13.432;2024-01-07T02:12:25;4.97;;;3.10;;
16472;SDS011;8347;52.486;13.432;2024-01-07T02:15:12;4.00;;;1.80;;
16472;SDS011;8347;52.486;13.432;2024-01-07T02:17:58;4.50;;;2.40;;
16472;SDS011;8347;52.486;13.432;2024-01-07T02:20:45;2.10;;;1.90;;
16472;SDS011;8347;52.486;13.432;2024-01-07T02:23:31;4.00;;;2.00;;
16472;SDS011;8347;52.486;13.432;2024-01-07T02:26:18;3.23;;;2.77;;
16472;SDS011;8347;52.486;13.432;2024-01-07T02:29:04;4.87;;;2.23;;
16472;SDS011;8347;52.486;13.432;2024-01-07T02:31:50;3.47;;;1.93;;
16472;SDS011;8347;52.486;13.432;2024-01-07T02:34:37;2.72;;;2.53;;
16472;SDS011;8347;52.486;13.432;2024-01-07T02:37:24;3.13;;;2.40;;
16472;SDS011;8347;52.486;13.432;2024-01-07T02:40:11;3.43;;;2.33;;
16472;SDS011;8347;52.486;13.432;2024-01-07T02:42:58;3.23;;;2.50;;
16472;SDS011;8347;52.486;13.432;2024-01-07T02:45:44;4.97;;;2.50;;
16472;SDS011;8347;52.486;13.432;2024-01-07T02:48:30;4.00;;;2.10;;
16472;SDS011;8347;52.486;13.432;2024-01-07T02:51:17;4.73;;;2.77;;
16472;SDS011;8347;52.486;13.432;2024-01-07T02:54:03;3.63;;;2.50;;
16472;SDS011;8347;52.486;13.432;2024-01-07T02:56:50;3.03;;;2.23;;
16472;SDS011;8347;52.486;13.432;2024-01-07T02:59:36;2.23;;;2.03;;
16472;SDS011;8347;52.486;13.432;2024-01-07T03:02:22;3.63;;;2.13;;
16472;SDS011;8347;52.486;13.432;2024-01-07T03:05:09;2.47;;;2.10;;
16472;SDS011;8347;52.486;13.432;2024-01-07T03:07:56;4.43;;;3.03;;
16472;SDS011;8347;52.486;13.432;2024-01-07T03:10:42;2.20;;;2.00;;
16472;SDS011;8347;52.486;13.432;2024-01-07T03:13:28;5.40;;;2.90;;
16472;SDS011;8347;52.486;13.432;2024-01-07T03:16:21;2.10;;;1.90;;
16472;SDS011;8347;52.486;13.432;2024-01-07T03:19:08;5.73;;;3.17;;
16472;SDS011;8347;52.486;13.432;2024-01-07T03:21:54;5.20;;;2.77;;
16472;SDS011;8347;52.486;13.432;2024-01-07T03:24:41;4.13;;;2.30;;
16472;SDS011;8347;52.486;13.432;2024-01-07T03:27:28;3.67;;;2.63;;
16472;SDS011;8347;52.486;13.432;2024-01-07T03:30:14;3.07;;;2.43;;
16472;SDS011;8347;52.486;13.432;2024-01-07T03:33:01;3.67;;;2.93;;
16472;SDS011;8347;52.486;13.432;2024-01-07T03:35:47;6.40;;;3.07;;
16472;SDS011;8347;52.486;13.432;2024-01-07T03:38:34;2.90;;;2.13;;
16472;SDS011;8347;52.486;13.432;2024-01-07T03:41:21;2.93;;;2.60;;
16472;SDS011;8347;52.486;13.432;2024-01-07T03:44:08;1.50;;;1.40;;
16472;SDS011;8347;52.486;13.432;2024-01-07T03:46:54;4.70;;;2.33;;
16472;SDS011;8347;52.486;13.432;2024-01-07T03:49:41;4.03;;;2.90;;
16472;SDS011;8347;52.486;13.432;2024-01-07T03:52:28;3.73;;;2.80;;
16472;SDS011;8347;52.486;13.432;2024-01-07T03:55:15;3.07;;;2.70;;
16472;SDS011;8347;52.486;13.432;2024-01-07T03:58:02;3.80;;;2.43;;
16472;SDS011;8347;52.486;13.432;2024-01-07T04:00:49;3.93;;;3.20;;
16472;SDS011;8347;52.486;13.432;2024-01-07T04:03:35;4.37;;;2.70;;
16472;SDS011;8347;52.486;13.432;2024-01-07T04:06:23;3.63;;;3.33;;
16472;SDS011;8347;52.486;13.432;2024-01-07T04:09:09;4.03;;;2.93;;
16472;SDS011;8347;52.486;13.432;2024-01-07T04:11:56;4.20;;;3.07;;
16472;SDS011;8347;52.486;13.432;2024-01-07T04:14:43;2.67;;;2.00;;
16472;SDS011;8347;52.486;13.432;2024-01-07T04:17:30;7.30;;;3.13;;
16472;SDS011;8347;52.486;13.432;2024-01-07T04:20:16;3.53;;;2.93;;
16472;SDS011;8347;52.486;13.432;2024-01-07T04:23:03;6.57;;;3.00;;
16472;SDS011;8347;52.486;13.432;2024-01-07T04:25:49;3.27;;;2.63;;
16472;SDS011;8347;52.486;13.432;2024-01-07T04:28:37;3.17;;;2.60;;
16472;SDS011;8347;52.486;13.432;2024-01-07T04:31:24;3.70;;;2.77;;
16472;SDS011;8347;52.486;13.432;2024-01-07T04:34:11;3.37;;;2.70;;
16472;SDS011;8347;52.486;13.432;2024-01-07T04:36:57;2.80;;;2.60;;
16472;SDS011;8347;52.486;13.432;2024-01-07T04:39:44;6.60;;;2.33;;
16472;SDS011;8347;52.486;13.432;2024-01-07T04:42:30;2.33;;;2.10;;
16472;SDS011;8347;52.486;13.432;2024-01-07T04:45:17;5.03;;;3.03;;
16472;SDS011;8347;52.486;13.432;2024-01-07T04:48:03;3.53;;;2.37;;
16472;SDS011;8347;52.486;13.432;2024-01-07T04:50:50;3.93;;;2.53;;
16472;SDS011;8347;52.486;13.432;2024-01-07T04:53:36;4.03;;;2.83;;
16472;SDS011;8347;52.486;13.432;2024-01-07T04:56:22;3.97;;;2.67;;
16472;SDS011;8347;52.486;13.432;2024-01-07T04:59:10;3.53;;;2.53;;
16472;SDS011;8347;52.486;13.432;2024-01-07T05:01:57;4.10;;;2.50;;
16472;SDS011;8347;52.486;13.432;2024-01-07T05:04:44;5.27;;;2.73;;
16472;SDS011;8347;52.486;13.432;2024-01-07T05:07:30;3.57;;;2.50;;
16472;SDS011;8347;52.486;13.432;2024-01-07T05:10:17;7.73;;;2.87;;
16472;SDS011;8347;52.486;13.432;2024-01-07T05:13:03;6.40;;;2.87;;
16472;SDS011;8347;52.486;13.432;2024-01-07T05:15:51;3.43;;;2.50;;
16472;SDS011;8347;52.486;13.432;2024-01-07T05:18:39;5.43;;;2.77;;
16472;SDS011;8347;52.486;13.432;2024-01-07T05:21:26;4.43;;;2.60;;
16472;SDS011;8347;52.486;13.432;2024-01-07T05:24:12;4.77;;;2.70;;
16472;SDS011;8347;52.486;13.432;2024-01-07T05:26:59;4.10;;;2.70;;
16472;SDS011;8347;52.486;13.432;2024-01-07T05:29:46;4.40;;;2.50;;
16472;SDS011;8347;52.486;13.432;2024-01-07T05:32:35;4.07;;;3.20;;
16472;SDS011;8347;52.486;13.432;2024-01-07T05:35:21;3.50;;;3.03;;
16472;SDS011;8347;52.486;13.432;2024-01-07T05:38:08;2.97;;;2.67;;
16472;SDS011;8347;52.486;13.432;2024-01-07T05:40:55;4.07;;;2.70;;
16472;SDS011;8347;52.486;13.432;2024-01-07T05:43:41;2.50;;;2.30;;
16472;SDS011;8347;52.486;13.432;2024-01-07T05:46:28;5.77;;;3.43;;
16472;SDS011;8347;52.486;13.432;2024-01-07T05:49:14;3.70;;;2.50;;
16472;SDS011;8347;52.486;13.432;2024-01-07T05:52:01;3.93;;;2.73;;
16472;SDS011;8347;52.486;13.432;2024-01-07T05:54:48;4.33;;;3.07;;
16472;SDS011;8347;52.486;13.432;2024-01-07T05:57:34;4.47;;;2.67;;
16472;SDS011;8347;52.486;13.432;2024-01-07T06:00:21;3.97;;;2.77;;
16472;SDS011;8347;52.486;13.432;2024-01-07T06:03:10;7.47;;;3.40;;
16472;SDS011;8347;52.486;13.432;2024-01-07T06:05:57;3.83;;;2.97;;
16472;SDS011;8347;52.486;13.432;2024-01-07T06:08:44;4.35;;;2.40;;
16472;SDS011;8347;52.486;13.432;2024-01-07T06:11:30;3.13;;;2.47;;
16472;SDS011;8347;52.486;13.432;2024-01-07T06:14:17;4.83;;;3.13;;
16472;SDS011;8347;52.486;13.432;2024-01-07T06:17:03;3.07;;;2.77;;
16472;SDS011;8347;52.486;13.432;2024-01-07T06:19:50;5.47;;;3.27;;
16472;SDS011;8347;52.486;13.432;2024-01-07T06:22:36;5.38;;;3.03;;
16472;SDS011;8347;52.486;13.432;2024-01-07T06:25:23;3.17;;;2.70;;
16472;SDS011;8347;52.486;13.432;2024-01-07T06:28:11;5.30;;;3.00;;
16472;SDS011;8347;52.486;13.432;2024-01-07T06:30:58;2.90;;;2.23;;
16472;SDS011;8347;52.486;13.432;2024-01-07T06:33:45;4.03;;;2.97;;
16472;SDS011;8347;52.486;13.432;2024-01-07T06:36:31;4.73;;;3.23;;
16472;SDS011;8347;52.486;13.432;2024-01-07T06:39:18;4.57;;;2.97;;
16472;SDS011;8347;52.486;13.432;2024-01-07T06:42:05;5.47;;;2.70;;
16472;SDS011;8347;52.486;13.432;2024-01-07T06:44:52;3.20;;;2.67;;
16472;SDS011;8347;52.486;13.432;2024-01-07T06:47:38;3.73;;;2.80;;
16472;SDS011;8347;52.486;13.432;2024-01-07T06:50:25;4.73;;;2.43;;
16472;SDS011;8347;52.486;13.432;2024-01-07T06:53:11;3.25;;;2.55;;
16472;SDS011;8347;52.486;13.432;2024-01-07T06:55:58;4.63;;;2.80;;
16472;SDS011;8347;52.486;13.432;2024-01-07T06:58:44;3.90;;;3.00;;
16472;SDS011;8347;52.486;13.432;2024-01-07T07:01:31;4.25;;;2.70;;
16472;SDS011;8347;52.486;13.432;2024-01-07T07:04:17;4.35;;;3.30;;
16472;SDS011;8347;52.486;13.432;2024-01-07T07:07:03;4.57;;;2.90;;
16472;SDS011;8347;52.486;13.432;2024-01-07T07:09:50;3.43;;;2.53;;
16472;SDS011;8347;52.486;13.432;2024-01-07T07:12:37;4.17;;;2.40;;
16472;SDS011;8347;52.486;13.432;2024-01-07T07:15:24;6.17;;;2.80;;
16472;SDS011;8347;52.486;13.432;2024-01-07T07:18:12;2.73;;;2.50;;
16472;SDS011;8347;52.486;13.432;2024-01-07T07:20:59;3.50;;;2.93;;
16472;SDS011;8347;52.486;13.432;2024-01-07T07:23:45;4.40;;;3.33;;
16472;SDS011;8347;52.486;13.432;2024-01-07T07:26:32;4.80;;;2.40;;
16472;SDS011;8347;52.486;13.432;2024-01-07T07:29:19;2.97;;;2.67;;
16472;SDS011;8347;52.486;13.432;2024-01-07T07:32:05;3.60;;;2.97;;
16472;SDS011;8347;52.486;13.432;2024-01-07T07:34:52;3.93;;;2.70;;
16472;SDS011;8347;52.486;13.432;2024-01-07T07:37:39;3.20;;;2.20;;
16472;SDS011;8347;52.486;13.432;2024-01-07T07:40:25;2.67;;;2.42;;
16472;SDS011;8347;52.486;13.432;2024-01-07T07:43:12;3.53;;;2.63;;
16472;SDS011;8347;52.486;13.432;2024-01-07T07:45:58;4.10;;;2.67;;
16472;SDS011;8347;52.486;13.432;2024-01-07T07:48:46;3.08;;;2.38;;
16472;SDS011;8347;52.486;13.432;2024-01-07T07:51:32;5.85;;;3.33;;
16472;SDS011;8347;52.486;13.432;2024-01-07T07:54:18;7.63;;;3.58;;
16472;SDS011;8347;52.486;13.432;2024-01-07T07:57:05;3.88;;;3.13;;
16472;SDS011;8347;52.486;13.432;2024-01-07T07:59:51;3.33;;;2.50;;
16472;SDS011;8347;52.486;13.432;2024-01-07T08:02:38;5.10;;;2.40;;
16472;SDS011;8347;52.486;13.432;2024-01-07T08:05:25;3.63;;;3.20;;
16472;SDS011;8347;52.486;13.432;2024-01-07T08:08:11;4.55;;;2.85;;
16472;SDS011;8347;52.486;13.432;2024-01-07T08:10:58;3.70;;;3.10;;
16472;SDS011;8347;52.486;13.432;2024-01-07T08:13:45;4.13;;;2.50;;
16472;SDS011;8347;52.486;13.432;2024-01-07T08:16:31;2.90;;;2.15;;
16472;SDS011;8347;52.486;13.432;2024-01-07T08:19:18;2.73;;;2.33;;
16472;SDS011;8347;52.486;13.432;2024-01-07T08:22:04;4.35;;;2.28;;
16472;SDS011;8347;52.486;13.432;2024-01-07T08:24:51;2.08;;;1.90;;
16472;SDS011;8347;52.486;13.432;2024-01-07T08:27:37;4.03;;;3.10;;
16472;SDS011;8347;52.486;13.432;2024-01-07T08:30:23;2.97;;;2.35;;
16472;SDS011;8347;52.486;13.432;2024-01-07T08:33:10;4.00;;;2.50;;
16472;SDS011;8347;52.486;13.432;2024-01-07T08:35:57;3.88;;;2.40;;
16472;SDS011;8347;52.486;13.432;2024-01-07T08:38:43;5.47;;;3.10;;
16472;SDS011;8347;52.486;13.432;2024-01-07T08:41:30;4.10;;;2.70;;
16472;SDS011;8347;52.486;13.432;2024-01-07T08:44:16;5.70;;;3.42;;
16472;SDS011;8347;52.486;13.432;2024-01-07T08:47:03;5.30;;;3.08;;
16472;SDS011;8347;52.486;13.432;2024-01-07T08:49:50;7.43;;;4.20;;
16472;SDS011;8347;52.486;13.432;2024-01-07T08:52:40;5.38;;;3.50;;
16472;SDS011;8347;52.486;13.432;2024-01-07T08:55:26;6.50;;;3.20;;
16472;SDS011;8347;52.486;13.432;2024-01-07T08:58:13;4.32;;;2.90;;
16472;SDS011;8347;52.486;13.432;2024-01-07T09:01:00;4.82;;;3.03;;
16472;SDS011;8347;52.486;13.432;2024-01-07T09:03:47;5.20;;;2.92;;
16472;SDS011;8347;52.486;13.432;2024-01-07T09:06:33;4.82;;;3.63;;
16472;SDS011;8347;52.486;13.432;2024-01-07T09:09:20;4.32;;;2.72;;
16472;SDS011;8347;52.486;13.432;2024-01-07T09:12:06;5.47;;;3.33;;
16472;SDS011;8347;52.486;13.432;2024-01-07T09:14:53;4.00;;;3.17;;
16472;SDS011;8347;52.486;13.432;2024-01-07T09:17:40;5.38;;;3.33;;
16472;SDS011;8347;52.486;13.432;2024-01-07T09:20:26;4.90;;;3.28;;
16472;SDS011;8347;52.486;13.432;2024-01-07T09:23:13;4.85;;;3.45;;
16472;SDS011;8347;52.486;13.432;2024-01-07T09:26:01;6.78;;;3.25;;
16472;SDS011;8347;52.486;13.432;2024-01-07T09:28:47;4.70;;;3.30;;
16472;SDS011;8347;52.486;13.432;2024-01-07T09:31:34;6.43;;;3.55;;
16472;SDS011;8347;52.486;13.432;2024-01-07T09:34:21;5.07;;;3.05;;
16472;SDS011;8347;52.486;13.432;2024-01-07T09:37:08;4.82;;;3.17;;
16472;SDS011;8347;52.486;13.432;2024-01-07T09:39:54;8.50;;;3.83;;
16472;SDS011;8347;52.486;13.432;2024-01-07T09:42:41;6.00;;;3.58;;
16472;SDS011;8347;52.486;13.432;2024-01-07T09:45:27;6.55;;;3.22;;
16472;SDS011;8347;52.486;13.432;2024-01-07T09:48:15;5.10;;;3.42;;
16472;SDS011;8347;52.486;13.432;2024-01-07T09:51:02;6.93;;;3.83;;
16472;SDS011;8347;52.486;13.432;2024-01-07T09:53:51;7.00;;;3.97;;
16472;SDS011;8347;52.486;13.432;2024-01-07T09:56:42;8.13;;;4.68;;
16472;SDS011;8347;52.486;13.432;2024-01-07T09:59:36;7.00;;;4.38;;
16472;SDS011;8347;52.486;13.432;2024-01-07T10:02:22;6.97;;;3.85;;
16472;SDS011;8347;52.486;13.432;2024-01-07T10:05:09;5.75;;;4.45;;
16472;SDS011;8347;52.486;13.432;2024-01-07T10:07:55;8.15;;;4.45;;
16472;SDS011;8347;52.486;13.432;2024-01-07T10:10:43;8.60;;;4.80;;
16472;SDS011;8347;52.486;13.432;2024-01-07T10:13:30;6.35;;;4.15;;
16472;SDS011;8347;52.486;13.432;2024-01-07T10:16:18;7.40;;;4.70;;
16472;SDS011;8347;52.486;13.432;2024-01-07T10:19:05;6.40;;;4.50;;
16472;SDS011;8347;52.486;13.432;2024-01-07T10:22:00;7.85;;;4.95;;
16472;SDS011;8347;52.486;13.432;2024-01-07T10:24:47;8.93;;;5.00;;
16472;SDS011;8347;52.486;13.432;2024-01-07T10:27:35;6.28;;;4.38;;
16472;SDS011;8347;52.486;13.432;2024-01-07T10:30:22;8.85;;;4.93;;
16472;SDS011;8347;52.486;13.432;2024-01-07T10:33:08;11.25;;;4.75;;
16472;SDS011;8347;52.486;13.432;2024-01-07T10:36:01;6.22;;;4.50;;
16472;SDS011;8347;52.486;13.432;2024-01-07T10:38:51;8.45;;;4.88;;
16472;SDS011;8347;52.486;13.432;2024-01-07T10:41:38;8.43;;;5.00;;
16472;SDS011;8347;52.486;13.432;2024-01-07T10:44:25;8.48;;;5.20;;
16472;SDS011;8347;52.486;13.432;2024-01-07T10:47:18;8.77;;;5.40;;
16472;SDS011;8347;52.486;13.432;2024-01-07T10:50:06;10.15;;;5.68;;
16472;SDS011;8347;52.486;13.432;2024-01-07T10:52:58;8.88;;;5.32;;
16472;SDS011;8347;52.486;13.432;2024-01-07T10:55:52;9.60;;;5.30;;
16472;SDS011;8347;52.486;13.432;2024-01-07T10:58:43;8.43;;;5.25;;
16472;SDS011;8347;52.486;13.432;2024-01-07T11:01:31;8.68;;;5.32;;
16472;SDS011;8347;52.486;13.432;2024-01-07T11:07:44;7.63;;;5.00;;
16472;SDS011;8347;52.486;13.432;2024-01-07T11:10:39;7.57;;;4.53;;
16472;SDS011;8347;52.486;13.432;2024-01-07T11:13:34;6.75;;;5.00;;
16472;SDS011;8347;52.486;13.432;2024-01-07T11:16:43;8.10;;;5.22;;
16472;SDS011;8347;52.486;13.432;2024-01-07T11:19:30;7.10;;;4.70;;
16472;SDS011;8347;52.486;13.432;2024-01-07T11:22:24;9.48;;;5.30;;
16472;SDS011;8347;52.486;13.432;2024-01-07T11:25:30;8.73;;;5.10;;
16472;SDS011;8347;52.486;13.432;2024-01-07T11:28:17;8.75;;;5.00;;
16472;SDS011;8347;52.486;13.432;2024-01-07T11:31:03;9.32;;;6.28;;
16472;SDS011;8347;52.486;13.432;2024-01-07T11:33:50;10.07;;;4.93;;
16472;SDS011;8347;52.486;13.432;2024-01-07T11:36:37;7.78;;;5.00;;
16472;SDS011;8347;52.486;13.432;2024-01-07T11:39:24;7.22;;;4.88;;
16472;SDS011;8347;52.486;13.432;2024-01-07T11:42:11;8.48;;;4.88;;
16472;SDS011;8347;52.486;13.432;2024-01-07T11:44:58;6.60;;;4.88;;
16472;SDS011;8347;52.486;13.432;2024-01-07T11:47:45;8.15;;;5.25;;
16472;SDS011;8347;52.486;13.432;2024-01-07T11:50:31;11.02;;;5.47;;
16472;SDS011;8347;52.486;13.432;2024-01-07T11:53:18;6.45;;;4.53;;
16472;SDS011;8347;52.486;13.432;2024-01-07T11:56:05;6.38;;;4.13;;
16472;SDS011;8347;52.486;13.432;2024-01-07T11:58:52;4.88;;;4.07;;
16472;SDS011;8347;52.486;13.432;2024-01-07T12:01:38;6.38;;;4.80;;
16472;SDS011;8347;52.486;13.432;2024-01-07T12:04:24;9.57;;;5.47;;
16472;SDS011;8347;52.486;13.432;2024-01-07T12:07:11;8.15;;;4.90;;
16472;SDS011;8347;52.486;13.432;2024-01-07T12:10:00;5.88;;;4.55;;
16472;SDS011;8347;52.486;13.432;2024-01-07T12:12:47;7.78;;;4.30;;
16472;SDS011;8347;52.486;13.432;2024-01-07T12:15:34;10.43;;;4.15;;
16472;SDS011;8347;52.486;13.432;2024-01-07T12:18:20;7.68;;;4.50;;
16472;SDS011;8347;52.486;13.432;2024-01-07T12:21:07;5.88;;;4.43;;
16472;SDS011;8347;52.486;13.432;2024-01-07T12:23:54;7.65;;;5.63;;
16472;SDS011;8347;52.486;13.432;2024-01-07T12:26:41;7.50;;;4.63;;
16472;SDS011;8347;52.486;13.432;2024-01-07T12:29:30;6.72;;;4.18;;
16472;SDS011;8347;52.486;13.432;2024-01-07T12:32:16;7.07;;;4.13;;
16472;SDS011;8347;52.486;13.432;2024-01-07T12:35:03;8.00;;;4.85;;
16472;SDS011;8347;52.486;13.432;2024-01-07T12:37:50;7.88;;;4.80;;
16472;SDS011;8347;52.486;13.432;2024-01-07T12:40:37;5.53;;;4.65;;
16472;SDS011;8347;52.486;13.432;2024-01-07T12:43:23;8.63;;;5.25;;
16472;SDS011;8347;52.486;13.432;2024-01-07T12:46:09;8.43;;;4.35;;
16472;SDS011;8347;52.486;13.432;2024-01-07T12:48:56;7.85;;;5.00;;
16472;SDS011;8347;52.486;13.432;2024-01-07T12:51:43;9.57;;;4.32;;
16472;SDS011;8347;52.486;13.432;2024-01-07T12:54:29;7.50;;;5.00;;
16472;SDS011;8347;52.486;13.432;2024-01-07T12:57:15;7.05;;;4.43;;
16472;SDS011;8347;52.486;13.432;2024-01-07T13:00:03;6.75;;;4.32;;
16472;SDS011;8347;52.486;13.432;2024-01-07T13:02:52;6.78;;;4.13;;
16472;SDS011;8347;52.486;13.432;2024-01-07T13:05:39;6.45;;;4.82;;
16472;SDS011;8347;52.486;13.432;2024-01-07T13:08:25;6.97;;;4.97;;
16472;SDS011;8347;52.486;13.432;2024-01-07T13:11:12;9.30;;;4.60;;
16472;SDS011;8347;52.486;13.432;2024-01-07T13:14:01;6.25;;;5.13;;
16472;SDS011;8347;52.486;13.432;2024-01-07T13:16:47;4.90;;;3.95;;
16472;SDS011;8347;52.486;13.432;2024-01-07T13:19:34;9.25;;;4.50;;
16472;SDS011;8347;52.486;13.432;2024-01-07T13:22:20;6.93;;;4.80;;
16472;SDS011;8347;52.486;13.432;2024-01-07T13:25:06;5.20;;;3.90;;
16472;SDS011;8347;52.486;13.432;2024-01-07T13:27:53;5.93;;;3.83;;
16472;SDS011;8347;52.486;13.432;2024-01-07T13:30:40;5.97;;;4.10;;
16472;SDS011;8347;52.486;13.432;2024-01-07T13:33:28;6.57;;;4.85;;
16472;SDS011;8347;52.486;13.432;2024-01-07T13:36:14;4.32;;;3.92;;
16472;SDS011;8347;52.486;13.432;2024-01-07T13:39:01;6.47;;;4.03;;
16472;SDS011;8347;52.486;13.432;2024-01-07T13:41:48;5.25;;;4.38;;
16472;SDS011;8347;52.486;13.432;2024-01-07T13:44:35;10.98;;;4.32;;
16472;SDS011;8347;52.486;13.432;2024-01-07T13:47:26;7.75;;;4.25;;
16472;SDS011;8347;52.486;13.432;2024-01-07T13:50:12;7.38;;;3.78;;
16472;SDS011;8347;52.486;13.432;2024-01-07T13:52:58;8.40;;;4.45;;
16472;SDS011;8347;52.486;13.432;2024-01-07T13:55:45;9.98;;;4.97;;
16472;SDS011;8347;52.486;13.432;2024-01-07T13:58:32;5.18;;;3.88;;
16472;SDS011;8347;52.486;13.432;2024-01-07T14:01:18;6.05;;;3.60;;
16472;SDS011;8347;52.486;13.432;2024-01-07T14:04:05;3.90;;;3.47;;
16472;SDS011;8347;52.486;13.432;2024-01-07T14:06:55;8.75;;;4.95;;
16472;SDS011;8347;52.486;13.432;2024-01-07T14:09:41;8.15;;;4.53;;
16472;SDS011;8347;52.486;13.432;2024-01-07T14:12:28;12.02;;;5.10;;
16472;SDS011;8347;52.486;13.432;2024-01-07T14:15:14;12.95;;;6.13;;
16472;SDS011;8347;52.486;13.432;2024-01-07T14:18:05;13.98;;;6.18;;
16472;SDS011;8347;52.486;13.432;2024-01-07T14:20:52;11.77;;;5.13;;
16472;SDS011;8347;52.486;13.432;2024-01-07T14:23:39;7.03;;;4.53;;
16472;SDS011;8347;52.486;13.432;2024-01-07T14:26:27;6.55;;;4.85;;
16472;SDS011;8347;52.486;13.432;2024-01-07T14:29:14;7.05;;;3.72;;
16472;SDS011;8347;52.486;13.432;2024-01-07T14:32:01;9.23;;;4.60;;
16472;SDS011;8347;52.486;13.432;2024-01-07T14:34:48;7.90;;;5.25;;
16472;SDS011;8347;52.486;13.432;2024-01-07T14:37:35;5.55;;;4.15;;
16472;SDS011;8347;52.486;13.432;2024-01-07T14:40:22;7.28;;;4.70;;
16472;SDS011;8347;52.486;13.432;2024-01-07T14:43:08;6.95;;;4.65;;
16472;SDS011;8347;52.486;13.432;2024-01-07T14:45:55;5.95;;;3.85;;
16472;SDS011;8347;52.486;13.432;2024-01-07T14:48:41;5.25;;;3.85;;
16472;SDS011;8347;52.486;13.432;2024-01-07T14:51:28;4.95;;;3.33;;
16472;SDS011;8347;52.486;13.432;2024-01-07T14:54:14;7.25;;;4.70;;
16472;SDS011;8347;52.486;13.432;2024-01-07T14:57:00;7.47;;;3.92;;
16472;SDS011;8347;52.486;13.432;2024-01-07T14:59:47;6.55;;;4.40;;
16472;SDS011;8347;52.486;13.432;2024-01-07T15:02:34;5.32;;;3.60;;
16472;SDS011;8347;52.486;13.432;2024-01-07T15:05:21;8.18;;;4.65;;
16472;SDS011;8347;52.486;13.432;2024-01-07T15:08:08;9.13;;;4.68;;
16472;SDS011;8347;52.486;13.432;2024-01-07T15:10:58;4.78;;;3.22;;
16472;SDS011;8347;52.486;13.432;2024-01-07T15:13:45;6.88;;;3.70;;
16472;SDS011;8347;52.486;13.432;2024-01-07T15:16:33;6.03;;;3.85;;
16472;SDS011;8347;52.486;13.432;2024-01-07T15:19:20;4.90;;;3.35;;
16472;SDS011;8347;52.486;13.432;2024-01-07T15:22:07;4.70;;;3.17;;
16472;SDS011;8347;52.486;13.432;2024-01-07T15:24:53;6.03;;;3.95;;
16472;SDS011;8347;52.486;13.432;2024-01-07T15:27:40;5.60;;;3.78;;
16472;SDS011;8347;52.486;13.432;2024-01-07T15:30:26;7.50;;;3.45;;
16472;SDS011;8347;52.486;13.432;2024-01-07T15:33:14;5.60;;;3.80;;
16472;SDS011;8347;52.486;13.432;2024-01-07T15:36:03;4.32;;;3.55;;
16472;SDS011;8347;52.486;13.432;2024-01-07T15:38:50;5.93;;;3.40;;
16472;SDS011;8347;52.486;13.432;2024-01-07T15:41:37;6.60;;;3.75;;
16472;SDS011;8347;52.486;13.432;2024-01-07T15:44:24;4.60;;;3.22;;
16472;SDS011;8347;52.486;13.432;2024-01-07T15:47:13;6.13;;;3.95;;
16472;SDS011;8347;52.486;13.432;2024-01-07T15:49:59;6.75;;;3.92;;
16472;SDS011;8347;52.486;13.432;2024-01-07T15:52:45;6.68;;;4.25;;
16472;SDS011;8347;52.486;13.432;2024-01-07T15:55:34;6.07;;;3.80;;
16472;SDS011;8347;52.486;13.432;2024-01-07T15:58:21;5.75;;;3.45;;
16472;SDS011;8347;52.486;13.432;2024-01-07T16:01:08;6.53;;;4.07;;
16472;SDS011;8347;52.486;13.432;2024-01-07T16:03:54;6.70;;;5.20;;
16472;SDS011;8347;52.486;13.432;2024-01-07T16:06:41;7.75;;;4.82;;
16472;SDS011;8347;52.486;13.432;2024-01-07T16:09:30;8.20;;;4.55;;
16472;SDS011;8347;52.486;13.432;2024-01-07T16:12:20;6.32;;;4.30;;
16472;SDS011;8347;52.486;13.432;2024-01-07T16:15:06;7.75;;;5.03;;
16472;SDS011;8347;52.486;13.432;2024-01-07T16:17:53;8.82;;;4.78;;
16472;SDS011;8347;52.486;13.432;2024-01-07T16:20:40;6.80;;;4.80;;
16472;SDS011;8347;52.486;13.432;2024-01-07T16:23:26;8.45;;;4.55;;
16472;SDS011;8347;52.486;13.432;2024-01-07T16:26:15;6.72;;;4.25;;
16472;SDS011;8347;52.486;13.432;2024-01-07T16:29:02;7.85;;;4.60;;
16472;SDS011;8347;52.486;13.432;2024-01-07T16:31:48;6.25;;;4.47;;
16472;SDS011;8347;52.486;13.432;2024-01-07T16:34:34;4.45;;;3.80;;
16472;SDS011;8347;52.486;13.432;2024-01-07T16:37:21;4.97;;;3.90;;
16472;SDS011;8347;52.486;13.432;2024-01-07T16:40:07;4.68;;;3.55;;
16472;SDS011;8347;52.486;13.432;2024-01-07T16:42:57;4.72;;;3.25;;
16472;SDS011;8347;52.486;13.432;2024-01-07T16:45:45;5.95;;;4.03;;
16472;SDS011;8347;52.486;13.432;2024-01-07T16:48:31;4.93;;;3.92;;
16472;SDS011;8347;52.486;13.432;2024-01-07T16:51:19;5.38;;;3.90;;